createdAt,value
2022-11-10T00:01:20.799Z,1.75
2022-11-10T00:03:51.024Z,1.98
2022-11-10T00:06:19.971Z,2.05
2022-11-10T00:08:48.708Z,2.55
2022-11-10T00:11:17.517Z,2.13
2022-11-10T00:14:07.062Z,1.80
2022-11-10T00:16:52.776Z,2.10
2022-11-10T00:19:21.566Z,2.08
2022-11-10T00:21:50.125Z,2.17
2022-11-10T00:24:19.227Z,2.10
2022-11-10T00:26:47.939Z,2.17
2022-11-10T00:29:18.052Z,1.90
2022-11-10T00:31:47.469Z,2.17
2022-11-10T00:34:18.172Z,2.40
2022-11-10T00:36:46.736Z,2.30
2022-11-10T00:39:15.703Z,2.08
2022-11-10T00:41:44.331Z,2.30
2022-11-10T00:44:13.898Z,1.75
2022-11-10T00:46:43.815Z,2.25
2022-11-10T00:49:12.733Z,2.42
2022-11-10T00:51:41.586Z,2.40
2022-11-10T00:54:10.788Z,2.38
2022-11-10T00:56:39.572Z,2.10
2022-11-10T00:59:08.252Z,2.67
2022-11-10T01:01:37.193Z,3.15
2022-11-10T01:04:08.407Z,1.88
2022-11-10T01:06:37.060Z,2.50
2022-11-10T01:09:06.184Z,2.50
2022-11-10T01:11:35.113Z,2.00
2022-11-10T01:14:03.700Z,2.63
2022-11-10T01:16:33.361Z,2.90
2022-11-10T01:19:04.805Z,2.13
2022-11-10T01:21:35.178Z,2.50
2022-11-10T01:24:06.552Z,2.60
2022-11-10T01:26:35.153Z,2.47
2022-11-10T01:29:04.893Z,2.42
2022-11-10T01:31:33.451Z,2.67
2022-11-10T01:34:02.207Z,2.38
2022-11-10T01:36:30.953Z,2.30
2022-11-10T01:39:02.758Z,2.67
2022-11-10T01:41:31.420Z,2.85
2022-11-10T01:44:17.991Z,2.35
2022-11-10T01:46:46.790Z,2.35
2022-11-10T01:49:18.836Z,2.92
2022-11-10T01:51:52.198Z,2.63
2022-11-10T01:54:25.961Z,2.97
2022-11-10T01:57:00.378Z,2.70
2022-11-10T01:59:33.322Z,2.30
2022-11-10T02:02:13.454Z,2.67
2022-11-10T02:04:43.226Z,2.65
2022-11-10T02:07:13.712Z,2.47
2022-11-10T02:09:43.866Z,2.22
2022-11-10T02:12:13.872Z,2.72
2022-11-10T02:14:42.987Z,2.80
2022-11-10T02:17:12.167Z,2.13
2022-11-10T02:19:42.984Z,2.42
2022-11-10T02:22:13.457Z,2.67
2022-11-10T02:24:41.990Z,2.53
2022-11-10T02:27:10.465Z,2.20
2022-11-10T02:29:39.309Z,2.65
2022-11-10T02:32:07.805Z,2.55
2022-11-10T02:34:36.352Z,2.65
2022-11-10T02:37:05.510Z,2.75
2022-11-10T02:39:35.864Z,2.58
2022-11-10T02:42:04.848Z,3.30
2022-11-10T02:44:33.502Z,2.63
2022-11-10T02:47:02.186Z,2.30
2022-11-10T02:49:30.867Z,2.28
2022-11-10T02:51:59.461Z,2.72
2022-11-10T02:54:28.083Z,2.78
2022-11-10T02:56:58.451Z,2.85
2022-11-10T02:59:27.067Z,2.40
2022-11-10T03:01:56.994Z,2.90
2022-11-10T03:04:25.902Z,2.63
2022-11-10T03:06:55.496Z,2.83
2022-11-10T03:09:24.252Z,2.67
2022-11-10T03:11:53.025Z,2.58
2022-11-10T03:14:23.003Z,2.53
2022-11-10T03:16:51.533Z,2.60
2022-11-10T03:19:21.037Z,2.80
2022-11-10T03:21:49.989Z,2.47
2022-11-10T03:24:18.591Z,2.53
2022-11-10T03:26:47.347Z,2.22
2022-11-10T03:29:16.020Z,2.40
2022-11-10T03:31:45.896Z,3.00
2022-11-10T03:34:14.575Z,2.20
2022-11-10T03:36:43.192Z,2.38
2022-11-10T03:39:11.787Z,2.67
2022-11-10T03:41:40.229Z,2.67
2022-11-10T03:44:09.464Z,2.28
2022-11-10T03:46:40.530Z,2.20
2022-11-10T03:49:13.317Z,2.20
2022-11-10T03:51:41.950Z,2.13
2022-11-10T03:54:10.488Z,2.50
2022-11-10T03:56:39.214Z,2.40
2022-11-10T03:59:07.976Z,2.65
2022-11-10T04:01:36.669Z,2.17
2022-11-10T04:04:05.188Z,2.50
2022-11-10T04:06:52.696Z,1.98
2022-11-10T04:09:21.120Z,2.03
2022-11-10T04:12:08.206Z,2.33
2022-11-10T04:14:56.482Z,1.80
2022-11-10T04:17:24.867Z,1.63
2022-11-10T04:19:53.224Z,1.58
2022-11-10T04:22:37.230Z,1.50
2022-11-10T04:25:06.357Z,1.67
2022-11-10T04:27:33.631Z,1.60
2022-11-10T04:30:03.205Z,1.92
2022-11-10T04:32:31.620Z,2.00
2022-11-10T04:35:00.030Z,1.90
2022-11-10T04:37:30.249Z,1.73
2022-11-10T04:39:58.727Z,2.40
2022-11-10T04:42:27.070Z,1.70
2022-11-10T04:44:56.140Z,1.40
2022-11-10T04:47:24.618Z,1.70
2022-11-10T04:49:53.072Z,2.00
2022-11-10T04:52:21.770Z,1.30
2022-11-10T04:54:51.861Z,1.20
2022-11-10T04:57:20.466Z,1.58
2022-11-10T04:59:50.162Z,1.15
2022-11-10T05:02:19.835Z,1.00
2022-11-10T05:04:48.537Z,1.20
2022-11-10T05:07:17.398Z,0.80
2022-11-10T05:09:47.022Z,0.88
2022-11-10T05:12:22.103Z,0.80
2022-11-10T05:14:51.329Z,0.80
2022-11-10T05:17:19.819Z,1.10
2022-11-10T05:19:48.418Z,0.80
2022-11-10T05:22:16.958Z,0.95
2022-11-10T05:24:45.542Z,0.90
2022-11-10T05:27:14.249Z,0.60
2022-11-10T05:29:44.533Z,0.80
2022-11-10T05:32:13.065Z,0.70
2022-11-10T05:34:41.607Z,0.75
2022-11-10T05:37:10.277Z,0.75
2022-11-10T05:39:38.704Z,0.82
2022-11-10T05:42:07.577Z,0.70
2022-11-10T05:44:36.353Z,0.82
2022-11-10T05:47:07.310Z,0.82
2022-11-10T05:49:36.089Z,1.00
2022-11-10T05:52:05.141Z,1.00
2022-11-10T05:54:33.847Z,1.10
2022-11-10T05:57:02.517Z,1.00
2022-11-10T05:59:31.001Z,0.93
2022-11-10T06:01:59.535Z,0.73
2022-11-10T06:04:30.223Z,0.80
2022-11-10T06:06:58.891Z,0.90
2022-11-10T06:09:27.698Z,0.80
2022-11-10T06:11:56.039Z,0.98
2022-11-10T06:14:24.581Z,0.80
2022-11-10T06:16:53.135Z,0.60
2022-11-10T06:19:22.797Z,1.00
2022-11-10T06:21:58.905Z,0.90
2022-11-10T06:24:31.982Z,0.93
2022-11-10T06:27:00.932Z,0.90
2022-11-10T06:29:29.857Z,0.82
2022-11-10T06:31:59.360Z,0.82
2022-11-10T06:34:27.994Z,1.00
2022-11-10T06:36:58.524Z,1.02
2022-11-10T06:39:27.008Z,0.80
2022-11-10T06:41:55.910Z,0.90
2022-11-10T06:44:24.437Z,1.00
2022-11-10T06:46:54.275Z,1.25
2022-11-10T06:49:23.853Z,0.88
2022-11-10T06:51:53.404Z,0.95
2022-11-10T06:54:32.323Z,1.20
2022-11-10T06:57:01.251Z,0.90
2022-11-10T06:59:30.429Z,0.95
2022-11-10T07:01:59.470Z,1.10
2022-11-10T07:04:28.135Z,1.30
2022-11-10T07:06:56.816Z,1.15
2022-11-10T07:09:25.322Z,1.30
2022-11-10T07:11:55.418Z,1.10
2022-11-10T07:14:24.646Z,1.50
2022-11-10T07:16:53.635Z,1.13
2022-11-10T07:19:22.860Z,1.00
2022-11-10T07:21:51.559Z,1.40
2022-11-10T07:24:19.920Z,0.98
2022-11-10T07:26:48.642Z,1.15
2022-11-10T07:29:18.647Z,0.98
2022-11-10T07:31:47.152Z,0.90
2022-11-10T07:34:16.260Z,0.80
2022-11-10T07:36:46.712Z,0.82
2022-11-10T07:39:16.546Z,1.00
2022-11-10T07:41:52.100Z,0.93
2022-11-10T07:44:24.813Z,1.10
2022-11-10T07:46:57.658Z,0.90
2022-11-10T07:49:31.998Z,1.00
2022-11-10T07:52:00.549Z,0.88
2022-11-10T07:54:37.351Z,1.25
2022-11-10T07:57:15.104Z,1.30
2022-11-10T08:00:04.908Z,1.30
2022-11-10T08:02:45.179Z,1.10
2022-11-10T08:05:36.199Z,1.17
2022-11-10T08:08:23.269Z,1.10
2022-11-10T08:11:10.946Z,1.10
2022-11-10T08:13:53.562Z,1.13
2022-11-10T08:16:36.859Z,1.10
2022-11-10T08:19:12.580Z,0.63
2022-11-10T08:21:50.998Z,0.88
2022-11-10T08:24:30.630Z,1.05
2022-11-10T08:26:59.490Z,1.27
2022-11-10T08:29:27.936Z,1.25
2022-11-10T08:31:59.610Z,1.00
2022-11-10T08:34:29.622Z,1.20
2022-11-10T08:36:58.329Z,1.45
2022-11-10T08:39:38.649Z,1.00
2022-11-10T08:42:08.417Z,1.27
2022-11-10T08:44:38.018Z,1.17
2022-11-10T08:47:08.536Z,1.20
2022-11-10T08:49:37.086Z,1.13
2022-11-10T08:52:06.247Z,1.17
2022-11-10T08:54:34.926Z,1.13
2022-11-10T08:57:03.946Z,1.02
2022-11-10T08:59:32.871Z,1.05
2022-11-10T09:02:02.202Z,1.02
2022-11-10T09:04:32.733Z,1.05
2022-11-10T09:07:01.931Z,0.82
2022-11-10T09:09:30.279Z,1.10
2022-11-10T09:11:58.679Z,1.20
2022-11-10T09:14:28.096Z,0.93
2022-11-10T09:16:56.933Z,1.02
2022-11-10T09:19:25.474Z,1.02
2022-11-10T09:21:55.910Z,1.17
2022-11-10T09:24:30.014Z,1.20
2022-11-10T09:27:00.165Z,0.88
2022-11-10T09:29:28.470Z,1.05
2022-11-10T09:31:57.481Z,0.70
2022-11-10T09:34:26.626Z,0.70
2022-11-10T09:36:58.358Z,1.10
2022-11-10T09:39:28.400Z,0.80
2022-11-10T09:41:57.359Z,0.82
2022-11-10T09:44:30.532Z,0.80
2022-11-10T09:47:02.662Z,0.70
2022-11-10T09:49:37.038Z,0.90
2022-11-10T09:52:08.615Z,1.00
2022-11-10T09:54:44.689Z,1.00
2022-11-10T09:57:17.224Z,1.08
2022-11-10T09:59:46.207Z,0.90
2022-11-10T10:02:24.549Z,0.80
2022-11-10T10:05:22.096Z,0.77
2022-11-10T10:08:00.113Z,1.00
2022-11-10T10:10:38.407Z,1.10
2022-11-10T10:13:24.792Z,0.90
2022-11-10T10:16:04.994Z,1.30
2022-11-10T10:18:40.988Z,0.98
2022-11-10T10:21:30.903Z,1.10
2022-11-10T10:24:10.315Z,1.10
2022-11-10T10:26:46.595Z,1.20
2022-11-10T10:29:21.528Z,1.20
2022-11-10T10:31:52.119Z,1.30
2022-11-10T10:34:24.848Z,1.42
2022-11-10T10:36:53.333Z,1.50
2022-11-10T10:39:30.571Z,2.20
2022-11-10T10:41:59.837Z,1.48
2022-11-10T10:44:28.714Z,1.50
2022-11-10T10:47:00.282Z,1.65
2022-11-10T10:49:31.160Z,1.70
2022-11-10T10:52:08.585Z,2.35
2022-11-10T10:54:40.113Z,2.28
2022-11-10T10:57:24.328Z,1.80
2022-11-10T10:59:54.126Z,2.20
2022-11-10T11:02:29.054Z,2.25
2022-11-10T11:05:13.518Z,2.50
2022-11-10T11:07:42.862Z,2.13
2022-11-10T11:10:25.735Z,2.40
2022-11-10T11:12:54.143Z,2.70
2022-11-10T11:15:27.013Z,2.47
2022-11-10T11:17:57.388Z,3.25
2022-11-10T11:20:33.799Z,3.40
2022-11-10T11:23:09.792Z,3.78
2022-11-10T11:25:43.626Z,2.33
2022-11-10T11:28:24.576Z,3.20
2022-11-10T11:31:05.427Z,4.05
2022-11-10T11:33:43.257Z,3.10
2022-11-10T11:36:20.795Z,4.15
2022-11-10T11:39:00.119Z,3.30
2022-11-10T11:41:42.147Z,3.45
2022-11-10T11:44:21.069Z,3.67
2022-11-10T11:47:00.813Z,3.67
2022-11-10T11:49:51.706Z,2.58
2022-11-10T11:52:33.711Z,3.10
2022-11-10T11:55:21.674Z,2.65
2022-11-10T11:58:16.476Z,3.13
2022-11-10T12:00:52.315Z,3.20
2022-11-10T12:03:36.374Z,2.50
2022-11-10T12:06:23.474Z,3.45
2022-11-10T12:09:00.713Z,2.78
2022-11-10T12:11:39.073Z,2.38
2022-11-10T12:14:19.391Z,2.88
2022-11-10T12:16:57.354Z,3.20
2022-11-10T12:19:34.182Z,2.53
2022-11-10T12:22:14.339Z,2.70
2022-11-10T12:24:57.183Z,2.90
2022-11-10T12:27:30.317Z,2.58
2022-11-10T12:30:05.935Z,3.08
2022-11-10T12:32:43.522Z,2.65
2022-11-10T12:35:17.227Z,2.25
2022-11-10T12:37:51.875Z,2.58
2022-11-10T12:40:23.887Z,2.30
2022-11-10T12:43:01.248Z,2.30
2022-11-10T12:45:37.589Z,2.05
2022-11-10T12:48:07.961Z,1.73
2022-11-10T12:50:46.706Z,1.90
2022-11-10T12:53:24.446Z,1.67
2022-11-10T12:55:58.728Z,1.85
2022-11-10T12:58:28.757Z,1.95
2022-11-10T13:01:17.696Z,1.95
2022-11-10T13:03:57.217Z,1.50
2022-11-10T13:06:30.429Z,1.50
2022-11-10T13:09:01.165Z,1.55
2022-11-10T13:11:34.889Z,1.60
2022-11-10T13:14:06.708Z,1.55
2022-11-10T13:16:52.271Z,1.65
2022-11-10T13:20:05.214Z,1.55
2022-11-10T13:22:48.128Z,1.73
2022-11-10T13:25:55.095Z,1.83
2022-11-10T13:29:01.135Z,1.73
2022-11-10T13:31:55.858Z,1.85
2022-11-10T13:34:35.125Z,1.75
2022-11-10T13:37:25.738Z,2.45
2022-11-10T13:39:55.668Z,1.88
2022-11-10T13:42:25.545Z,2.47
2022-11-10T13:44:54.166Z,2.13
2022-11-10T13:47:53.371Z,2.10
2022-11-10T13:50:36.470Z,2.00
2022-11-10T13:53:20.759Z,2.47
2022-11-10T13:56:04.742Z,2.30
2022-11-10T13:58:36.777Z,2.13
2022-11-10T14:01:30.732Z,2.15
2022-11-10T14:04:04.415Z,3.17
2022-11-10T14:06:44.048Z,3.10
2022-11-10T14:09:22.873Z,2.58
2022-11-10T14:11:57.605Z,2.42
2022-11-10T14:14:28.820Z,2.55
2022-11-10T14:16:58.334Z,3.05
2022-11-10T14:19:38.249Z,2.42
2022-11-10T14:22:20.537Z,2.42
2022-11-10T14:24:56.138Z,2.88
2022-11-10T14:27:28.709Z,2.42
2022-11-10T14:30:11.264Z,2.95
2022-11-10T14:32:39.794Z,2.90
2022-11-10T14:35:21.729Z,3.50
2022-11-10T14:37:50.929Z,3.05
2022-11-10T14:40:22.394Z,2.78
2022-11-10T14:42:50.880Z,2.92
2022-11-10T14:45:21.613Z,2.60
2022-11-10T14:47:55.545Z,3.17
2022-11-10T14:50:27.294Z,2.47
2022-11-10T14:53:00.110Z,2.42
2022-11-10T14:55:33.229Z,2.88
2022-11-10T14:58:07.044Z,2.80
2022-11-10T15:00:39.447Z,2.60
2022-11-10T15:03:10.098Z,2.50
2022-11-10T15:05:41.334Z,2.55
2022-11-10T15:08:14.339Z,2.95
2022-11-10T15:10:48.099Z,3.10
2022-11-10T15:13:34.164Z,2.60
2022-11-10T15:16:34.504Z,2.58
2022-11-10T15:19:26.143Z,2.80
2022-11-10T15:21:57.451Z,2.38
2022-11-10T15:24:28.427Z,2.65
2022-11-10T15:26:57.213Z,2.83
2022-11-10T15:29:26.495Z,2.60
2022-11-10T15:31:55.478Z,2.40
2022-11-10T15:34:34.169Z,2.97
2022-11-10T15:37:24.905Z,2.75
2022-11-10T15:40:37.544Z,2.38
2022-11-10T15:43:16.024Z,2.80
2022-11-10T15:45:45.446Z,3.00
2022-11-10T15:48:15.556Z,2.70
2022-11-10T15:50:46.798Z,3.20
2022-11-10T15:53:19.068Z,3.15
2022-11-10T15:55:48.036Z,2.78
2022-11-10T15:58:18.947Z,2.45
2022-11-10T16:00:48.292Z,3.25
2022-11-10T16:03:19.590Z,3.00
2022-11-10T16:05:48.934Z,2.90
2022-11-10T16:08:21.275Z,2.63
2022-11-10T16:10:51.514Z,2.92
2022-11-10T16:13:24.689Z,2.53
2022-11-10T16:15:54.062Z,2.88
2022-11-10T16:18:24.441Z,2.63
2022-11-10T16:20:54.138Z,3.75
2022-11-10T16:23:26.227Z,3.20
2022-11-10T16:25:57.577Z,3.40
2022-11-10T16:28:29.285Z,2.85
2022-11-10T16:30:57.943Z,3.22
2022-11-10T16:33:28.262Z,3.00
2022-11-10T16:35:58.567Z,2.92
2022-11-10T16:38:30.321Z,3.03
2022-11-10T16:41:00.870Z,3.53
2022-11-10T16:43:30.900Z,2.88
2022-11-10T16:46:03.800Z,2.85
2022-11-10T16:48:34.676Z,3.10
2022-11-10T16:51:04.041Z,2.70
2022-11-10T16:53:34.846Z,2.95
2022-11-10T16:56:03.130Z,3.05
2022-11-10T16:58:31.759Z,2.95
2022-11-10T17:01:03.327Z,3.03
2022-11-10T17:03:35.743Z,3.58
2022-11-10T17:06:05.483Z,3.08
2022-11-10T17:08:37.488Z,3.25
2022-11-10T17:11:06.501Z,3.67
2022-11-10T17:13:35.197Z,2.97
2022-11-10T17:16:06.915Z,3.10
2022-11-10T17:18:36.851Z,3.28
2022-11-10T17:21:10.344Z,3.28
2022-11-10T17:23:41.438Z,3.08
2022-11-10T17:26:11.582Z,2.60
2022-11-10T17:28:40.524Z,2.80
2022-11-10T17:31:09.283Z,2.85
2022-11-10T17:33:37.942Z,2.63
2022-11-10T17:36:07.950Z,2.53
2022-11-10T17:38:36.528Z,2.45
2022-11-10T17:41:10.092Z,2.90
2022-11-10T17:43:44.331Z,2.42
2022-11-10T17:46:14.765Z,2.50
2022-11-10T17:48:43.335Z,2.78
2022-11-10T17:51:21.838Z,2.63
2022-11-10T17:53:50.827Z,2.35
2022-11-10T17:56:21.038Z,3.10
2022-11-10T17:58:58.327Z,2.55
2022-11-10T18:01:27.923Z,2.30
2022-11-10T18:03:57.572Z,2.65
2022-11-10T18:06:27.288Z,2.65
2022-11-10T18:08:56.309Z,1.92
2022-11-10T18:11:42.583Z,2.33
2022-11-10T18:14:12.880Z,2.13
2022-11-10T18:16:42.098Z,2.50
2022-11-10T18:19:12.856Z,2.75
2022-11-10T18:21:41.300Z,2.30
2022-11-10T18:24:09.891Z,1.90
2022-11-10T18:26:39.919Z,2.38
2022-11-10T18:29:08.528Z,2.47
2022-11-10T18:31:37.014Z,2.15
2022-11-10T18:34:05.582Z,2.22
2022-11-10T18:36:34.539Z,2.22
2022-11-10T18:39:03.269Z,1.60
2022-11-10T18:41:49.397Z,2.08
2022-11-10T18:44:21.038Z,1.98
2022-11-10T18:46:49.867Z,2.10
2022-11-10T18:49:18.401Z,2.20
2022-11-10T18:51:47.297Z,2.15
2022-11-10T18:54:16.265Z,2.13
2022-11-10T18:56:44.985Z,1.75
2022-11-10T18:59:15.274Z,1.77
2022-11-10T19:01:46.310Z,3.03
2022-11-10T19:04:16.112Z,1.65
2022-11-10T19:06:45.207Z,3.30
2022-11-10T19:09:13.821Z,2.95
2022-11-10T19:11:42.378Z,5.93
2022-11-10T19:14:11.620Z,5.88
2022-11-10T19:16:40.303Z,9.02
2022-11-10T19:19:11.706Z,7.30
2022-11-10T19:21:40.398Z,3.13
2022-11-10T19:24:09.289Z,3.78
2022-11-10T19:26:38.542Z,3.90
2022-11-10T19:29:08.012Z,2.53
2022-11-10T19:31:36.656Z,2.90
2022-11-10T19:34:05.058Z,2.55
2022-11-10T19:36:34.961Z,2.45
2022-11-10T19:39:03.815Z,1.88
2022-11-10T19:41:34.063Z,2.35
2022-11-10T19:44:03.599Z,2.05
2022-11-10T19:46:37.132Z,2.55
2022-11-10T19:49:06.405Z,1.98
2022-11-10T19:51:36.663Z,2.42
2022-11-10T19:54:06.145Z,2.75
2022-11-10T19:56:37.645Z,2.83
2022-11-10T19:59:08.088Z,2.70
2022-11-10T20:01:37.718Z,2.80
2022-11-10T20:04:08.731Z,2.83
2022-11-10T20:06:38.799Z,3.35
2022-11-10T20:09:07.347Z,2.50
2022-11-10T20:11:36.286Z,2.83
2022-11-10T20:14:06.982Z,3.10
2022-11-10T20:16:35.857Z,3.67
2022-11-10T20:19:07.412Z,3.47
2022-11-10T20:21:35.961Z,3.22
2022-11-10T20:24:06.468Z,2.63
2022-11-10T20:26:35.126Z,2.80
2022-11-10T20:29:04.920Z,3.28
2022-11-10T20:31:34.016Z,3.22
2022-11-10T20:34:02.429Z,3.20
2022-11-10T20:36:34.235Z,2.88
2022-11-10T20:39:02.769Z,3.50
2022-11-10T20:41:33.705Z,3.35
2022-11-10T20:44:02.643Z,3.85
2022-11-10T20:49:20.378Z,2.88
2022-11-10T20:51:49.063Z,3.50
2022-11-10T20:54:21.311Z,3.03
2022-11-10T20:56:52.402Z,3.60
2022-11-10T20:59:22.471Z,3.20
2022-11-10T21:01:51.060Z,3.10
2022-11-10T21:04:23.690Z,3.47
2022-11-10T21:06:52.477Z,3.13
2022-11-10T21:09:24.074Z,3.53
2022-11-10T21:12:12.233Z,3.88
2022-11-10T21:14:43.051Z,3.13
2022-11-10T21:17:11.544Z,2.85
2022-11-10T21:19:41.173Z,2.72
2022-11-10T21:22:09.749Z,2.25
2022-11-10T21:24:38.564Z,2.80
2022-11-10T21:27:10.812Z,2.47
2022-11-10T21:29:39.429Z,3.03
2022-11-10T21:32:09.532Z,2.58
2022-11-10T21:34:38.416Z,2.50
2022-11-10T21:37:07.038Z,2.28
2022-11-10T21:39:35.887Z,2.35
2022-11-10T21:42:04.950Z,2.55
2022-11-10T21:44:38.906Z,2.10
2022-11-10T21:47:09.871Z,2.50
2022-11-10T21:49:38.943Z,2.25
2022-11-10T21:52:07.864Z,2.10
2022-11-10T21:54:38.635Z,1.90
2022-11-10T21:57:08.456Z,2.15
2022-11-10T21:59:41.573Z,2.70
2022-11-10T22:02:12.058Z,2.65
2022-11-10T22:04:42.200Z,2.58
2022-11-10T22:07:26.477Z,2.70
2022-11-10T22:10:14.288Z,2.90
2022-11-10T22:13:02.780Z,2.65
2022-11-10T22:15:52.075Z,2.47
2022-11-10T22:18:41.549Z,2.63
2022-11-10T22:21:11.011Z,2.38
2022-11-10T22:23:57.865Z,2.90
2022-11-10T22:26:26.584Z,2.88
2022-11-10T22:28:54.960Z,2.33
2022-11-10T22:31:25.357Z,2.42
2022-11-10T22:33:53.906Z,2.38
2022-11-10T22:36:23.053Z,2.35
2022-11-10T22:38:51.722Z,2.20
2022-11-10T22:41:37.482Z,2.28
2022-11-10T22:44:06.518Z,2.30
2022-11-10T22:46:38.526Z,2.30
2022-11-10T22:49:09.659Z,2.35
2022-11-10T22:51:40.016Z,2.33
2022-11-10T22:54:12.444Z,2.08
2022-11-10T22:56:41.988Z,2.10
2022-11-10T22:59:11.731Z,1.92
2022-11-10T23:01:42.890Z,2.00
2022-11-10T23:04:12.540Z,1.98
2022-11-10T23:06:41.431Z,2.20
2022-11-10T23:09:10.201Z,2.22
2022-11-10T23:11:38.906Z,2.15
2022-11-10T23:14:07.672Z,1.80
2022-11-10T23:16:36.396Z,1.42
2022-11-10T23:19:06.440Z,2.05
2022-11-10T23:21:35.240Z,1.88
2022-11-10T23:24:03.876Z,1.92
2022-11-10T23:26:34.936Z,1.65
2022-11-10T23:29:03.567Z,2.17
2022-11-10T23:31:32.150Z,1.77
2022-11-10T23:34:01.344Z,2.35
2022-11-10T23:36:31.254Z,1.92
2022-11-10T23:39:09.368Z,2.13
2022-11-10T23:41:51.494Z,1.67
2022-11-10T23:44:33.237Z,2.03
2022-11-10T23:47:05.776Z,1.90
2022-11-10T23:49:34.429Z,1.42
2022-11-10T23:52:06.106Z,1.70
2022-11-10T23:54:34.804Z,1.48
2022-11-10T23:57:03.254Z,1.60
2022-11-10T23:59:31.914Z,1.75
